Latest Coastal Weather Observations for Centre Island

IDD60701

Issued at 9:25 pm CST Tuesday 2 September 2014 (issued every 10 minutes, with the page automatically refreshed every 10 minutes)

About coastal observations | Map of coastal stations | Coastal observations for NT | Marine services | Other Formats
Station Details ID: 014703 Name: CENTRE ISLAND Lat: -15.74 Lon: 136.82 Height: 12.2 m
Data from the previous 72 hours. | See also: Recent months at Centre Island
Date/Time
CST
Temp

°C
Wind Pressure Rain
since 9am
mm
Weather Cloud Vis
km
Sea
Height
m
Swell
Dir
 
Speed
knots
Gust
knots
hPa Trend Height
m
Period
s
Dir
02/09:00pm 21.8 NNE 4 6 1015.3 - 0.0 - - - - - - -
02/08:30pm 22.1 N 4 5 1015.1 - 0.0 - - - - - - -
02/08:00pm 22.8 NE 6 8 1014.8 - 0.0 - - - - - - -
02/07:30pm 23.0 N 6 8 1014.6 - 0.0 - - - - - - -
02/07:00pm 23.5 N 7 9 1014.3 - 0.0 - - - - - - -
02/06:30pm 23.7 N 7 9 1014.0 - 0.0 - - - - - - -
02/06:00pm 24.3 N 9 11 1013.8 - 0.0 - - - - - - -
02/05:30pm 25.1 N 10 13 1013.5 - 0.0 - - - - - - -
02/05:00pm 25.8 NNE 11 16 1013.2 - 0.0 - - - - - - -
02/04:30pm 27.0 NNE 12 16 1013.2 - 0.0 - - - - - - -
02/04:00pm 28.2 NNE 11 14 1012.9 - 0.0 - - - - - - -
02/03:30pm 29.1 NNE 14 17 1012.9 - 0.0 - - - - - - -
02/03:00pm 30.3 NNE 7 10 1012.9 - 0.0 - - - - - - -
02/02:30pm 31.5 NE 7 9 1013.2 - 0.0 - - - - - - -
02/02:00pm 31.3 NE 8 11 1013.7 - 0.0 - - - - - - -
02/01:30pm 31.5 NE 7 10 1014.0 - 0.0 - - - - - - -
02/01:00pm 30.2 ENE 7 9 1014.4 - 0.0 - - - - - - -
02/12:30pm 31.0 E 8 9 1014.8 - 0.0 - - - - - - -
02/12:00pm 30.8 E 7 9 1015.1 - 0.0 - - - - - - -
02/11:30am 29.0 S 4 5 1015.7 - 0.0 - - - - - - -
02/11:00am 26.5 SSW 4 6 1016.1 - 0.0 - - - - - - -
02/10:30am 25.1 SSW 5 6 1016.5 - 0.0 - - - - - - -
02/10:00am 23.8 SW 5 7 1016.4 - 0.0 - - - - - - -
02/09:30am 23.4 S 6 7 1016.5 - 0.0 - - - - - - -
02/09:00am 22.7 S 5 7 1016.5 - 0.2 - - - - - - -
02/08:30am 21.9 S 6 8 1016.5 - 0.2 - - - - - - -
02/08:00am 20.4 S 8 9 1016.3 - 0.2 - - - - - - -
02/07:30am 19.8 S 8 11 1016.3 - 0.2 - - - - - - -
02/07:00am 19.4 S 9 10 1016.2 - 0.2 - - - - - - -
02/06:30am 19.6 S 10 11 1016.1 - 0.2 - - - - - - -
02/06:00am 19.3 SSW 8 10 1015.8 - 0.2 - - - - - - -
02/05:30am 19.4 SSW 8 10 1015.3 - 0.2 - - - - - - -
02/05:00am 19.6 S 8 10 1015.1 - 0.2 - - - - - - -
02/04:30am 19.9 S 6 8 1015.2 - 0.0 - - - - - - -
02/04:00am 20.2 S 6 8 1015.1 - 0.0 - - - - - - -
02/03:30am 20.9 S 8 10 1015.3 - 0.0 - - - - - - -
02/03:00am 21.3 S 6 7 1015.3 - 0.0 - - - - - - -
02/02:30am 21.2 S 4 6 1015.3 - 0.0 - - - - - - -
02/02:00am 20.5 CALM 0 0 1015.4 - 0.0 - - - - - - -
02/01:30am 20.3 CALM 0 0 1015.6 - 0.0 - - - - - - -
02/01:00am 20.8 CALM 0 0 1015.8 - 0.0 - - - - - - -
02/12:30am 20.9 E 4 5 1015.7 - 0.0 - - - - - - -
02/12:00am 21.3 ENE 4 5 1015.5 - 0.0 - - - - - - -
 
Date/Time
CST
Temp

°C
Wind Pressure Rain
since 9am
mm
Weather Cloud Vis
km
Sea
Height
m
Swell
Dir
 
Speed
knots
Gust
knots
hPa Trend Height
m
Period
s
Dir
01/11:30pm 21.4 NE 5 6 1015.3 - 0.0 - - - - - - -
01/11:00pm 21.6 NE 5 7 1015.1 - 0.0 - - - - - - -
01/10:30pm 21.6 NNE 4 6 1014.9 - 0.0 - - - - - - -
01/10:00pm 21.9 NNE 6 8 1014.7 - 0.0 - - - - - - -
01/09:30pm 21.9 NE 6 7 1014.6 - 0.0 - - - - - - -
01/09:00pm 21.9 NNE 6 7 1014.5 - 0.0 - - - - - - -
01/08:30pm 22.2 NNE 6 8 1014.3 - 0.0 - - - - - - -
01/08:00pm 22.3 NNE 7 8 1014.0 - 0.0 - - - - - - -
01/07:30pm 22.5 NNE 7 9 1013.8 - 0.0 - - - - - - -
01/07:00pm 22.6 N 5 8 1013.5 - 0.0 - - - - - - -
01/06:30pm 23.1 NNE 9 12 1013.2 - 0.0 - - - - - - -
01/06:00pm 23.7 NNE 10 13 1012.9 - 0.0 - - - - - - -
01/05:30pm 24.7 NNE 11 15 1012.7 - 0.0 - - - - - - -
01/05:00pm 25.3 NNE 13 17 1012.6 - 0.0 - - - - - - -
01/04:30pm 25.7 NNE 13 17 1012.5 - 0.0 - - - - - - -
01/04:00pm 26.4 NNE 13 16 1012.6 - 0.0 - - - - - - -
01/03:30pm 26.7 NNE 13 19 1012.8 - 0.0 - - - - - - -
01/03:00pm 28.1 NNE 12 16 1012.7 - 0.0 - - - - - - -
01/02:30pm 29.5 NE 12 16 1012.8 - 0.0 - - - - - - -
01/02:00pm 30.1 NE 10 14 1013.2 - 0.0 - - - - - - -
01/01:30pm 30.4 E 10 12 1013.5 - 0.0 - - - - - - -
01/01:00pm 30.0 E 11 12 1014.1 - 0.0 - - - - - - -
01/12:30pm 29.5 E 8 10 1014.4 - 0.0 - - - - - - -
01/12:00pm 28.6 ESE 5 7 1014.9 - 0.0 - - - - - - -
01/11:30am 27.3 S 4 6 1015.4 - 0.0 - - - - - - -
01/11:00am 25.9 SSW 6 7 1015.8 - 0.0 - - - - - - -
01/10:30am 24.9 SW 7 8 1016.3 - 0.0 - - - - - - -
01/10:00am 23.8 SSW 8 11 1016.4 - 0.0 - - - - - - -
01/09:30am 21.9 SSW 8 11 1016.5 - 0.0 - - - - - - -
01/09:00am 19.9 SSW 6 7 1016.7 - 0.2 - - - - - - -
01/08:30am 19.4 S 7 9 1016.5 - 0.2 - - - - - - -
01/08:00am 18.6 S 6 9 1016.2 - 0.2 - - - - - - -
01/07:30am 18.8 SSW 7 9 1015.9 - 0.2 - - - - - - -
01/07:00am 18.9 S 7 11 1015.5 - 0.2 - - - - - - -
01/06:30am 18.7 S 6 9 1015.1 - 0.2 - - - - - - -
01/06:00am 18.7 S 5 8 1014.8 - 0.0 - - - - - - -
01/05:30am 19.0 S 4 7 1014.5 - 0.0 - - - - - - -
01/05:00am 19.1 S 4 6 1014.4 - 0.0 - - - - - - -
01/04:30am 19.7 S 7 9 1014.3 - 0.0 - - - - - - -
01/04:00am 20.2 S 3 4 1013.8 - 0.0 - - - - - - -
01/03:30am 20.6 S 2 5 1013.8 - 0.0 - - - - - - -
01/03:00am 20.8 S 2 5 1013.6 - 0.0 - - - - - - -
01/02:30am 21.0 SSE 3 5 1013.6 - 0.0 - - - - - - -
01/02:00am 20.4 SSE 2 4 1013.6 - 0.0 - - - - - - -
01/01:30am 20.0 CALM 0 0 1013.6 - 0.0 - - - - - - -
01/01:00am 20.5 CALM 0 3 1013.6 - 0.0 - - - - - - -
01/12:30am 20.7 ESE 3 4 1013.7 - 0.0 - - - - - - -
01/12:00am 20.8 E 4 5 1013.9 - 0.0 - - - - - - -
 
Date/Time
CST
Temp

°C
Wind Pressure Rain
since 9am
mm
Weather Cloud Vis
km
Sea
Height
m
Swell
Dir
 
Speed
knots
Gust
knots
hPa Trend Height
m
Period
s
Dir
31/11:30pm 21.1 E 4 5 1014.1 - 0.0 - - - - - - -
31/11:00pm 21.3 ENE 5 6 1014.0 - 0.0 - - - - - - -
31/10:30pm 21.4 ENE 5 6 1014.1 - 0.0 - - - - - - -
31/10:00pm 21.6 NE 5 7 1014.0 - 0.0 - - - - - - -
31/09:30pm 21.7 NNE 6 8 1014.1 - 0.0 - - - - - - -
31/09:00pm 21.7 NE 6 8 1013.9 - 0.0 - - - - - - -
31/08:30pm 21.8 NNE 5 8 1013.8 - 0.0 - - - - - - -
31/08:00pm 22.0 NNE 7 9 1013.5 - 0.0 - - - - - - -
31/07:30pm 22.2 N 7 11 1013.2 - 0.0 - - - - - - -
31/07:00pm 22.3 NNE 8 11 1012.8 - 0.0 - - - - - - -
31/06:30pm 22.5 NNE 9 12 1012.6 - 0.0 - - - - - - -
31/06:00pm 22.9 NNE 9 12 1012.4 - 0.0 - - - - - - -
31/05:30pm 23.8 NNE 10 13 1012.2 - 0.0 - - - - - - -
31/05:00pm 25.1 NNE 9 13 1012.1 - 0.0 - - - - - - -
31/04:30pm 25.5 NNE 10 14 1012.1 - 0.0 - - - - - - -
31/04:00pm 25.5 NNE 11 15 1012.0 - 0.0 - - - - - - -
31/03:30pm 26.9 NE 13 19 1011.8 - 0.0 - - - - - - -
31/03:00pm 27.6 NE 11 15 1011.9 - 0.0 - - - - - - -
31/02:30pm 28.3 ENE 10 15 1012.1 - 0.0 - - - - - - -
31/02:00pm 28.5 ENE 14 17 1012.6 - 0.0 - - - - - - -
31/01:55pm 28.6 ENE 15 20 1012.7 - 0.0 - - - - - - -
31/01:30pm 28.8 SSE 5 6 1012.9 - 0.0 - - - - - - -
31/01:00pm 28.8 SE 4 5 1013.4 - 0.0 - - - - - - -
31/12:30pm 28.6 ESE 5 6 1013.8 - 0.0 - - - - - - -
31/12:00pm 26.3 SE 4 5 1014.3 - 0.0 - - - - - - -
31/11:30am 26.3 SW 3 5 1014.7 - 0.0 - - - - - - -
31/11:00am 24.3 W 6 7 1015.2 - 0.0 - - - - - - -
31/10:30am 23.4 WSW 6 7 1015.5 - 0.0 - - - - - - -
31/10:00am 22.7 SSW 6 7 1015.7 - 0.0 - - - - - - -
31/09:30am 22.0 SSW 7 9 1015.9 - 0.0 - - - - - - -
31/09:00am 21.1 SSW 7 9 1015.9 - 0.2 - - - - - - -
31/08:30am 20.0 S 7 8 1015.7 - 0.2 - - - - - - -
31/08:00am 19.5 S 6 8 1015.7 - 0.2 - - - - - - -
31/07:30am 19.1 S 6 9 1015.6 - 0.2 - - - - - - -
31/07:00am 18.8 S 8 11 1015.2 - 0.2 - - - - - - -
31/06:30am 18.5 SSW 7 9 1014.9 - 0.2 - - - - - - -
31/06:00am 18.6 SSW 7 8 1014.8 - 0.2 - - - - - - -
31/05:30am 18.9 S 8 9 1014.7 - 0.2 - - - - - - -
31/05:00am 19.3 SSE 6 9 1014.4 - 0.2 - - - - - - -
31/04:30am 19.3 SSE 4 5 1014.3 - 0.0 - - - - - - -
31/04:00am 19.3 SE 2 5 1014.2 - 0.0 - - - - - - -
31/03:30am 19.5 ESE 4 6 1014.2 - 0.0 - - - - - - -
31/03:00am 19.7 ESE 4 7 1014.1 - 0.0 - - - - - - -
31/02:30am 19.9 SE 6 8 1014.1 - 0.0 - - - - - - -
31/02:00am 19.7 SSE 7 9 1014.1 - 0.0 - - - - - - -
31/01:30am 19.6 SSE 7 8 1014.3 - 0.0 - - - - - - -
31/01:00am 19.8 SSE 7 9 1014.6 - 0.0 - - - - - - -
31/12:30am 19.9 SSE 8 11 1014.9 - 0.0 - - - - - - -
31/12:00am 20.5 SSE 7 9 1015.1 - 0.0 - - - - - - -
 
Date/Time
CST
Temp

°C
Wind Pressure Rain
since 9am
mm
Weather Cloud Vis
km
Sea
Height
m
Swell
Dir
 
Speed
knots
Gust
knots
hPa Trend Height
m
Period
s
Dir
30/11:30pm 20.7 ESE 7 8 1014.7 - 0.0 - - - - - - -
30/11:00pm 20.9 ESE 8 9 1014.8 - 0.0 - - - - - - -
30/10:30pm 20.9 ESE 7 8 1014.9 - 0.0 - - - - - - -
30/10:00pm 21.1 ESE 9 11 1014.8 - 0.0 - - - - - - -
30/09:30pm 21.0 ESE 5 7 1014.9 - 0.0 - - - - - - -

Other Formats:

Comma delimited format used in spreadsheet applications
http://www.bom.gov.au/fwo/IDD60701/IDD60701.94248.axf

JavaScript Object Notation format (JSON) in row-major order
http://www.bom.gov.au/fwo/IDD60701/IDD60701.94248.json